createdAt,value
2022-09-06T00:00:35.205Z,5.10
2022-09-06T00:03:01.516Z,7.13
2022-09-06T00:05:28.439Z,4.65
2022-09-06T00:07:54.696Z,7.88
2022-09-06T00:10:20.960Z,4.18
2022-09-06T00:12:47.698Z,4.07
2022-09-06T00:15:14.032Z,5.22
2022-09-06T00:17:40.464Z,4.07
2022-09-06T00:20:09.089Z,6.78
2022-09-06T00:22:36.386Z,3.95
2022-09-06T00:25:04.474Z,5.30
2022-09-06T00:27:30.990Z,5.25
2022-09-06T00:29:57.254Z,4.65
2022-09-06T00:32:23.911Z,4.70
2022-09-06T00:34:50.161Z,3.83
2022-09-06T00:37:16.414Z,4.22
2022-09-06T00:39:42.708Z,6.88
2022-09-06T00:42:09.827Z,6.47
2022-09-06T00:44:36.412Z,5.90
2022-09-06T00:47:02.926Z,6.57
2022-09-06T00:49:31.533Z,6.85
2022-09-06T00:51:59.349Z,6.68
2022-09-06T00:54:25.849Z,7.10
2022-09-06T00:56:54.312Z,6.60
2022-09-06T00:59:21.000Z,6.47
2022-09-06T01:01:47.354Z,5.75
2022-09-06T01:04:13.879Z,5.65
2022-09-06T01:06:59.024Z,6.35
2022-09-06T01:09:37.514Z,5.28
2022-09-06T01:12:09.620Z,5.63
2022-09-06T01:14:45.276Z,7.68
2022-09-06T01:17:14.554Z,5.90
2022-09-06T01:19:43.940Z,6.00
2022-09-06T01:22:20.048Z,8.18
2022-09-06T01:25:01.453Z,7.75
2022-09-06T01:27:27.696Z,6.32
2022-09-06T01:29:53.940Z,7.63
2022-09-06T01:32:26.647Z,6.65
2022-09-06T01:34:56.761Z,6.25
2022-09-06T01:37:23.388Z,7.03
2022-09-06T01:39:49.709Z,6.20
2022-09-06T01:42:19.414Z,5.75
2022-09-06T01:44:47.603Z,7.10
2022-09-06T01:47:20.120Z,6.32
2022-09-06T01:49:59.563Z,10.05
2022-09-06T01:52:45.220Z,6.28
2022-09-06T01:55:30.152Z,5.80
2022-09-06T01:58:15.279Z,5.45
2022-09-06T02:00:46.311Z,7.47
2022-09-06T02:03:12.574Z,5.82
2022-09-06T02:05:44.402Z,6.20
2022-09-06T02:08:26.983Z,5.40
2022-09-06T02:11:01.414Z,5.18
2022-09-06T02:13:30.162Z,7.05
2022-09-06T02:16:01.016Z,6.28
2022-09-06T02:18:29.952Z,6.70
2022-09-06T02:20:57.788Z,10.25
2022-09-06T02:23:25.765Z,7.63
2022-09-06T02:25:58.088Z,6.43
2022-09-06T02:28:24.808Z,8.77
2022-09-06T02:30:53.392Z,11.23
2022-09-06T02:33:21.175Z,8.43
2022-09-06T02:35:49.430Z,4.45
2022-09-06T02:38:16.143Z,9.00
2022-09-06T02:40:43.200Z,6.07
2022-09-06T02:43:09.745Z,9.32
2022-09-06T02:45:36.067Z,6.63
2022-09-06T02:48:02.484Z,8.07
2022-09-06T02:50:28.796Z,6.25
2022-09-06T02:53:24.374Z,6.90
2022-09-06T02:55:50.678Z,7.50
2022-09-06T02:58:17.000Z,7.57
2022-09-06T03:00:44.019Z,8.98
2022-09-06T03:03:10.439Z,7.40
2022-09-06T03:05:36.731Z,9.52
2022-09-06T03:08:03.180Z,7.32
2022-09-06T03:10:29.435Z,7.85
2022-09-06T03:12:55.702Z,7.57
2022-09-06T03:15:22.050Z,12.05
2022-09-06T03:17:48.328Z,9.35
2022-09-06T03:20:14.623Z,8.85
2022-09-06T03:22:41.015Z,8.93
2022-09-06T03:25:07.886Z,11.73
2022-09-06T03:27:34.352Z,8.30
2022-09-06T03:30:00.655Z,9.15
2022-09-06T03:32:26.929Z,12.40
2022-09-06T03:34:53.189Z,9.00
2022-09-06T03:37:19.559Z,8.18
2022-09-06T03:39:45.921Z,9.80
2022-09-06T03:42:12.231Z,8.98
2022-09-06T03:44:38.569Z,9.82
2022-09-06T03:47:05.052Z,12.02
2022-09-06T03:49:31.323Z,9.02
2022-09-06T03:51:57.599Z,9.63
2022-09-06T03:54:24.560Z,15.43
2022-09-06T03:56:50.902Z,9.15
2022-09-06T03:59:17.150Z,12.38
2022-09-06T04:01:43.498Z,13.73
2022-09-06T04:04:10.004Z,14.23
2022-09-06T04:06:36.326Z,10.52
2022-09-06T04:09:02.593Z,10.27
2022-09-06T04:11:28.855Z,8.95
2022-09-06T04:13:55.122Z,10.25
2022-09-06T04:16:21.486Z,9.38
2022-09-06T04:18:47.819Z,7.70
2022-09-06T04:21:14.105Z,9.30
2022-09-06T04:23:40.445Z,8.98
2022-09-06T04:26:06.755Z,7.90
2022-09-06T04:28:33.007Z,8.77
2022-09-06T04:31:04.629Z,11.25
2022-09-06T04:33:31.751Z,9.07
2022-09-06T04:35:59.264Z,7.07
2022-09-06T04:38:26.643Z,8.82
2022-09-06T04:40:53.593Z,9.25
2022-09-06T04:43:19.936Z,8.73
2022-09-06T04:45:46.218Z,8.50
2022-09-06T04:48:12.722Z,8.10
2022-09-06T04:50:39.009Z,8.27
2022-09-06T04:53:05.714Z,9.18
2022-09-06T04:55:33.857Z,8.85
2022-09-06T04:58:03.740Z,8.50
2022-09-06T05:00:31.580Z,10.80
2022-09-06T05:02:57.988Z,7.35
2022-09-06T05:05:24.374Z,9.50
2022-09-06T05:07:54.108Z,8.55
2022-09-06T05:10:20.911Z,8.03
2022-09-06T05:12:51.390Z,8.30
2022-09-06T05:15:18.099Z,7.88
2022-09-06T05:17:44.435Z,9.65
2022-09-06T05:20:11.222Z,7.93
2022-09-06T05:22:37.806Z,8.88
2022-09-06T05:25:04.191Z,7.43
2022-09-06T05:27:30.459Z,7.25
2022-09-06T05:29:56.716Z,7.60
2022-09-06T05:32:23.023Z,11.00
2022-09-06T05:34:49.264Z,8.43
2022-09-06T05:37:15.593Z,8.27
2022-09-06T05:39:41.870Z,11.50
2022-09-06T05:42:08.176Z,10.63
2022-09-06T05:44:35.181Z,8.10
2022-09-06T05:47:01.579Z,8.10
2022-09-06T05:49:31.580Z,7.85
2022-09-06T05:51:58.048Z,9.27
2022-09-06T05:54:24.880Z,5.93
2022-09-06T05:56:51.145Z,6.85
2022-09-06T05:59:17.403Z,9.13
2022-09-06T06:01:47.990Z,7.68
2022-09-06T06:04:14.252Z,8.70
2022-09-06T06:06:40.510Z,8.15
2022-09-06T06:09:06.767Z,8.45
2022-09-06T06:11:33.043Z,15.40
2022-09-06T06:13:59.343Z,13.15
2022-09-06T06:16:25.773Z,8.10
2022-09-06T06:18:52.854Z,8.18
2022-09-06T06:21:23.683Z,19.00
2022-09-06T06:23:50.952Z,12.85
2022-09-06T06:26:17.327Z,15.75
2022-09-06T06:28:43.771Z,16.55
2022-09-06T06:31:10.901Z,14.45
2022-09-06T06:33:37.825Z,15.93
2022-09-06T06:36:04.152Z,12.85
2022-09-06T06:38:37.527Z,15.00
2022-09-06T06:41:06.834Z,13.25
2022-09-06T06:43:37.501Z,14.53
2022-09-06T06:46:08.654Z,13.65
2022-09-06T06:48:35.708Z,16.52
2022-09-06T06:51:02.003Z,17.00
2022-09-06T06:53:28.295Z,12.43
2022-09-06T06:55:54.930Z,20.17
2022-09-06T06:58:21.238Z,14.43
2022-09-06T07:00:47.578Z,10.60
2022-09-06T07:03:13.914Z,17.38
2022-09-06T07:08:26.911Z,17.08
2022-09-06T07:10:53.241Z,16.13
2022-09-06T07:13:19.622Z,13.57
2022-09-06T07:15:45.927Z,14.57
2022-09-06T07:18:12.177Z,15.23
2022-09-06T07:26:15.483Z,18.30
2022-09-06T07:28:41.825Z,15.38
2022-09-06T07:33:55.759Z,15.60
2022-09-06T07:36:22.176Z,16.42
2022-09-06T07:38:51.976Z,15.95
2022-09-06T07:41:18.769Z,18.33
2022-09-06T07:43:45.559Z,12.63
2022-09-06T07:46:13.573Z,18.75
2022-09-06T07:48:40.484Z,17.27
2022-09-06T07:51:11.367Z,14.43
2022-09-06T07:53:38.439Z,13.52
2022-09-06T07:56:06.282Z,12.32
2022-09-06T07:58:33.361Z,13.55
2022-09-06T08:01:18.317Z,15.05
2022-09-06T08:03:45.202Z,13.77
2022-09-06T08:06:11.560Z,12.13
2022-09-06T08:11:25.773Z,13.07
2022-09-06T08:13:54.576Z,22.52
2022-09-06T08:16:21.521Z,10.60
2022-09-06T08:18:55.119Z,13.27
2022-09-06T08:21:23.579Z,11.05
2022-09-06T08:23:51.084Z,11.07
2022-09-06T08:26:18.210Z,10.63
2022-09-06T08:28:44.945Z,11.88
2022-09-06T08:31:12.314Z,11.93
2022-09-06T08:33:39.203Z,13.48
2022-09-06T08:36:06.003Z,9.80
2022-09-06T08:38:32.629Z,10.98
2022-09-06T08:41:07.806Z,8.35
2022-09-06T08:43:35.086Z,13.68
2022-09-06T08:46:01.675Z,9.30
2022-09-06T08:48:30.095Z,9.02
2022-09-06T08:51:25.675Z,12.27
2022-09-06T08:53:56.665Z,7.28
2022-09-06T08:56:24.373Z,7.28
2022-09-06T08:59:00.746Z,9.45
2022-09-06T09:01:33.693Z,10.63
2022-09-06T09:04:03.764Z,8.65
2022-09-06T09:06:31.759Z,7.95
2022-09-06T09:09:03.988Z,10.07
2022-09-06T09:11:33.295Z,8.10
2022-09-06T09:14:03.344Z,6.30
2022-09-06T09:16:29.881Z,9.88
2022-09-06T09:18:59.045Z,6.38
2022-09-06T09:21:30.402Z,7.45
2022-09-06T09:23:58.835Z,8.93
2022-09-06T09:26:26.867Z,10.82
2022-09-06T09:29:13.236Z,7.45
2022-09-06T09:31:40.938Z,10.23
2022-09-06T09:34:11.602Z,6.63
2022-09-06T09:36:39.127Z,10.00
2022-09-06T09:39:09.243Z,8.55
2022-09-06T09:41:38.225Z,10.20
2022-09-06T09:44:05.928Z,10.68
2022-09-06T09:46:33.776Z,7.57
2022-09-06T09:49:07.840Z,19.67
2022-09-06T09:51:38.373Z,8.38
2022-09-06T09:54:06.302Z,6.75
2022-09-06T09:56:35.486Z,10.00
2022-09-06T09:59:03.573Z,8.60
2022-09-06T10:01:31.073Z,8.95
2022-09-06T10:09:35.678Z,9.57
2022-09-06T10:12:02.355Z,12.23
2022-09-06T10:14:31.678Z,8.25
2022-09-06T10:16:58.439Z,5.43
2022-09-06T10:19:37.116Z,4.28
2022-09-06T10:22:20.093Z,7.25
2022-09-06T10:25:05.749Z,8.05
2022-09-06T10:27:33.175Z,5.13
2022-09-06T10:30:06.823Z,5.22
2022-09-06T10:32:39.364Z,5.28
2022-09-06T10:35:12.297Z,5.60
2022-09-06T10:37:45.179Z,4.50
2022-09-06T10:40:12.314Z,4.15
2022-09-06T10:42:55.016Z,3.20
2022-09-06T10:45:27.835Z,3.80
2022-09-06T10:47:56.235Z,3.65
2022-09-06T10:50:25.790Z,8.27
2022-09-06T10:52:52.799Z,3.17
2022-09-06T10:55:19.382Z,3.35
2022-09-06T11:00:36.355Z,4.85
2022-09-06T11:06:09.934Z,3.90
2022-09-06T11:08:58.239Z,5.95
2022-09-06T11:11:35.977Z,5.40
2022-09-06T11:14:06.226Z,3.63
2022-09-06T11:16:39.473Z,5.75
2022-09-06T11:19:14.046Z,6.00
2022-09-06T11:22:00.757Z,3.08
2022-09-06T11:24:45.659Z,4.10
2022-09-06T11:27:11.983Z,4.00
2022-09-06T11:29:41.423Z,4.78
2022-09-06T11:32:26.353Z,9.02
2022-09-06T11:34:54.290Z,4.13
2022-09-06T11:37:25.934Z,5.80
2022-09-06T11:40:28.601Z,4.60
2022-09-06T11:42:55.348Z,8.90
2022-09-06T11:45:21.933Z,4.68
2022-09-06T11:47:49.547Z,8.68
2022-09-06T11:50:21.888Z,5.80
2022-09-06T11:53:06.530Z,7.20
2022-09-06T11:56:09.488Z,5.18
2022-09-06T11:58:41.827Z,5.25
2022-09-06T12:01:16.517Z,6.18
2022-09-06T12:06:31.625Z,8.77
2022-09-06T12:08:58.277Z,4.20
2022-09-06T12:11:27.058Z,7.53
2022-09-06T12:13:57.136Z,7.25
2022-09-06T12:16:23.924Z,8.23
2022-09-06T12:18:50.235Z,6.68
2022-09-06T12:21:35.145Z,7.60
2022-09-06T12:24:01.799Z,8.07
2022-09-06T12:26:55.257Z,6.65
2022-09-06T12:29:26.209Z,6.07
2022-09-06T12:31:57.041Z,7.93
2022-09-06T12:34:25.403Z,6.65
2022-09-06T12:36:54.061Z,6.43
2022-09-06T12:39:23.571Z,15.15
2022-09-06T12:41:51.845Z,5.95
2022-09-06T12:44:21.683Z,15.95
2022-09-06T12:46:50.412Z,6.20
2022-09-06T12:49:19.494Z,6.78
2022-09-06T12:51:45.837Z,8.27
2022-09-06T12:54:18.464Z,8.70
2022-09-06T12:56:44.818Z,7.88
2022-09-06T12:59:19.311Z,5.90
2022-09-06T13:02:02.649Z,11.75
2022-09-06T13:04:49.468Z,9.25
2022-09-06T13:07:17.740Z,6.70
2022-09-06T13:09:46.830Z,9.38
2022-09-06T13:12:35.494Z,6.60
2022-09-06T13:15:08.103Z,9.10
2022-09-06T13:17:35.462Z,6.35
2022-09-06T13:20:10.300Z,6.75
2022-09-06T13:22:38.084Z,5.57
2022-09-06T13:25:05.150Z,7.20
2022-09-06T13:27:31.376Z,7.20
2022-09-06T13:29:58.783Z,7.22
2022-09-06T13:32:26.708Z,8.90
2022-09-06T13:34:56.828Z,5.93
2022-09-06T13:37:25.319Z,8.40
2022-09-06T13:39:52.036Z,10.10
2022-09-06T13:42:28.992Z,7.90
2022-09-06T13:44:58.754Z,6.97
2022-09-06T13:47:28.402Z,6.43
2022-09-06T13:49:57.616Z,6.95
2022-09-06T13:52:23.944Z,8.40
2022-09-06T13:54:50.241Z,6.10
2022-09-06T13:57:20.007Z,4.45
2022-09-06T13:59:49.839Z,7.60
2022-09-06T14:02:17.632Z,5.05
2022-09-06T14:04:44.022Z,6.18
2022-09-06T14:07:10.391Z,5.10
2022-09-06T14:09:37.465Z,7.00
2022-09-06T14:12:05.189Z,3.42
2022-09-06T14:14:31.477Z,4.20
2022-09-06T14:16:57.861Z,6.22
2022-09-06T14:19:24.332Z,3.67
2022-09-06T14:24:40.331Z,3.00
2022-09-06T14:27:07.212Z,4.10
2022-09-06T14:29:34.737Z,6.50
2022-09-06T14:32:01.372Z,3.67
2022-09-06T14:34:27.763Z,2.97
2022-09-06T14:36:54.227Z,1.88
2022-09-06T14:39:20.606Z,7.30
2022-09-06T14:41:46.935Z,1.70
2022-09-06T14:44:13.199Z,3.97
2022-09-06T14:46:39.522Z,3.55
2022-09-06T14:49:07.616Z,3.72
2022-09-06T14:51:34.561Z,2.55
2022-09-06T14:54:08.262Z,2.63
2022-09-06T14:56:34.605Z,4.20
2022-09-06T14:59:00.892Z,6.65
2022-09-06T15:01:28.531Z,2.50
2022-09-06T15:03:57.038Z,6.55
2022-09-06T15:06:24.396Z,4.95
2022-09-06T15:08:51.579Z,4.35
2022-09-06T15:11:35.117Z,3.53
2022-09-06T15:14:02.159Z,5.50
2022-09-06T15:16:28.761Z,4.30
2022-09-06T15:18:55.419Z,3.42
2022-09-06T15:21:22.165Z,2.25
2022-09-06T15:23:48.463Z,7.75
2022-09-06T15:26:15.516Z,4.05
2022-09-06T15:28:43.558Z,2.55
2022-09-06T15:31:10.731Z,4.15
2022-09-06T15:33:37.640Z,2.72
2022-09-06T15:36:08.396Z,3.50
2022-09-06T15:38:41.135Z,2.20
2022-09-06T15:41:08.832Z,2.95
2022-09-06T15:43:36.490Z,4.00
2022-09-06T15:46:03.227Z,3.35
2022-09-06T15:48:29.798Z,10.73
2022-09-06T15:50:56.043Z,4.00
2022-09-06T15:53:22.301Z,3.70
2022-09-06T15:55:57.410Z,3.45
2022-09-06T15:58:24.989Z,5.20
2022-09-06T16:01:04.853Z,3.33
2022-09-06T16:03:31.597Z,4.40
2022-09-06T16:08:49.692Z,3.28
2022-09-06T16:11:20.362Z,2.97
2022-09-06T16:13:46.611Z,3.38
2022-09-06T16:16:14.561Z,2.33
2022-09-06T16:18:42.450Z,3.13
2022-09-06T16:21:16.594Z,2.08
2022-09-06T16:23:42.867Z,3.53
2022-09-06T16:26:09.712Z,2.83
2022-09-06T16:28:37.051Z,7.43
2022-09-06T16:31:04.473Z,7.10
2022-09-06T16:33:31.825Z,2.25
2022-09-06T16:36:01.651Z,10.60
2022-09-06T16:38:31.683Z,4.10
2022-09-06T16:43:25.551Z,5.82
2022-09-06T16:45:55.636Z,7.22
2022-09-06T16:50:48.101Z,7.75
2022-09-06T16:53:14.428Z,4.50
2022-09-06T16:55:40.689Z,9.38
2022-09-06T16:58:07.384Z,4.15
2022-09-06T17:00:33.700Z,5.13
2022-09-06T17:03:00.114Z,4.25
2022-09-06T17:05:26.423Z,5.35
2022-09-06T17:07:52.775Z,3.85
2022-09-06T17:10:19.048Z,9.50
2022-09-06T17:12:45.380Z,3.40
2022-09-06T17:15:11.834Z,6.10
2022-09-06T17:17:38.128Z,3.05
2022-09-06T17:20:04.876Z,3.50
2022-09-06T17:22:31.684Z,4.88
2022-09-06T17:24:57.936Z,2.47
2022-09-06T17:27:24.379Z,4.93
2022-09-06T17:29:50.636Z,8.13
2022-09-06T17:32:16.919Z,14.50
2022-09-06T17:34:43.437Z,6.15
2022-09-06T17:37:09.866Z,12.88
2022-09-06T17:39:36.351Z,3.70
2022-09-06T17:42:03.172Z,4.43
2022-09-06T17:44:29.604Z,7.07
2022-09-06T17:47:11.976Z,8.05
2022-09-06T17:49:39.339Z,2.92
2022-09-06T17:52:05.720Z,6.50
2022-09-06T17:54:32.044Z,4.63
2022-09-06T17:56:58.418Z,7.90
2022-09-06T17:59:25.111Z,7.95
2022-09-06T18:01:52.341Z,4.95
2022-09-06T18:04:19.394Z,9.25
2022-09-06T18:06:46.745Z,7.85
2022-09-06T18:09:15.344Z,5.85
2022-09-06T18:11:42.357Z,11.18
2022-09-06T18:14:10.483Z,6.38
2022-09-06T18:16:37.771Z,12.20
2022-09-06T18:19:08.759Z,5.57
2022-09-06T18:21:36.583Z,9.63
2022-09-06T18:24:03.329Z,7.63
2022-09-06T18:26:29.634Z,9.20
2022-09-06T18:28:56.141Z,5.53
2022-09-06T18:31:23.868Z,10.57
2022-09-06T18:33:50.465Z,8.38
2022-09-06T18:36:17.429Z,6.13
2022-09-06T18:38:44.332Z,5.82
2022-09-06T18:41:30.640Z,7.22
2022-09-06T18:44:03.368Z,6.70
2022-09-06T18:46:36.188Z,11.40
2022-09-06T18:49:02.480Z,11.00
2022-09-06T18:51:28.800Z,11.02
2022-09-06T18:53:56.065Z,5.65
2022-09-06T18:56:22.538Z,12.55
2022-09-06T18:58:48.864Z,13.60
2022-09-06T19:01:16.405Z,7.25
2022-09-06T19:03:43.126Z,12.45
2022-09-06T19:06:13.427Z,6.70
2022-09-06T19:11:09.049Z,6.90
2022-09-06T19:13:36.651Z,8.23
2022-09-06T19:16:03.234Z,9.10
2022-09-06T19:18:29.603Z,11.85
2022-09-06T19:21:05.000Z,9.18
2022-09-06T19:23:32.220Z,14.07
2022-09-06T19:25:59.449Z,8.27
2022-09-06T19:28:26.148Z,10.13
2022-09-06T19:30:52.659Z,11.48
2022-09-06T19:33:19.136Z,8.75
2022-09-06T19:36:07.622Z,11.63
2022-09-06T19:38:47.291Z,9.20
2022-09-06T19:41:19.203Z,24.20
2022-09-06T19:43:49.423Z,10.90
2022-09-06T19:46:15.752Z,31.52
2022-09-06T19:48:49.399Z,13.13
2022-09-06T19:51:16.717Z,31.60
2022-09-06T19:53:44.203Z,40.97
2022-09-06T19:56:14.595Z,33.83
2022-09-06T19:58:41.849Z,28.85
2022-09-06T20:01:08.794Z,26.00
2022-09-06T20:03:37.906Z,53.22
2022-09-06T20:06:05.142Z,23.48
2022-09-06T20:08:31.412Z,24.80
2022-09-06T20:10:58.851Z,29.50
2022-09-06T20:13:25.703Z,24.83
2022-09-06T20:15:52.043Z,27.02
2022-09-06T20:18:18.593Z,30.73
2022-09-06T20:20:45.239Z,19.17
2022-09-06T20:23:11.811Z,22.30
2022-09-06T20:25:38.424Z,18.00
2022-09-06T20:28:04.748Z,20.23
2022-09-06T20:30:31.670Z,15.40
2022-09-06T20:33:01.346Z,15.80
2022-09-06T20:35:27.983Z,23.38
2022-09-06T20:37:54.266Z,25.95
2022-09-06T20:40:20.523Z,18.23
2022-09-06T20:42:46.788Z,11.43
2022-09-06T20:45:13.200Z,14.13
2022-09-06T20:47:39.458Z,15.05
2022-09-06T20:50:05.987Z,18.13
2022-09-06T20:52:32.259Z,11.82
2022-09-06T20:54:58.541Z,13.23
2022-09-06T20:57:25.368Z,15.10
2022-09-06T20:59:51.632Z,15.82
2022-09-06T21:02:17.944Z,10.05
2022-09-06T21:04:44.389Z,10.23
2022-09-06T21:07:10.841Z,11.20
2022-09-06T21:09:37.370Z,19.15
2022-09-06T21:12:04.547Z,12.48
2022-09-06T21:14:31.045Z,10.30
2022-09-06T21:16:57.435Z,13.73
2022-09-06T21:19:25.394Z,10.25
2022-09-06T21:21:51.646Z,10.65
2022-09-06T21:24:17.895Z,15.82
2022-09-06T21:26:44.208Z,13.32
2022-09-06T21:29:10.500Z,12.77
2022-09-06T21:31:37.201Z,10.05
2022-09-06T21:34:05.143Z,11.30
2022-09-06T21:36:33.851Z,13.20
2022-09-06T21:39:01.645Z,14.80
2022-09-06T21:41:28.506Z,15.63
2022-09-06T21:43:56.069Z,11.38
2022-09-06T21:46:23.734Z,13.20
2022-09-06T21:48:51.931Z,14.60
2022-09-06T21:51:20.587Z,10.88
2022-09-06T21:53:48.070Z,9.63
2022-09-06T21:56:15.591Z,9.20
2022-09-06T21:58:42.217Z,12.82
2022-09-06T22:01:08.725Z,11.75
2022-09-06T22:03:36.394Z,8.45
2022-09-06T22:06:09.412Z,9.38
2022-09-06T22:08:35.693Z,8.93
2022-09-06T22:11:09.171Z,7.00
2022-09-06T22:13:35.507Z,8.60
2022-09-06T22:16:07.515Z,12.48
2022-09-06T22:18:34.426Z,7.30
2022-09-06T22:21:01.728Z,8.93
2022-09-06T22:23:28.075Z,8.48
2022-09-06T22:26:04.434Z,10.05
2022-09-06T22:28:31.343Z,10.57
2022-09-06T22:30:57.829Z,8.02
2022-09-06T22:33:24.539Z,12.15
2022-09-06T22:35:51.081Z,12.73
2022-09-06T22:38:17.493Z,11.77
2022-09-06T22:40:43.804Z,10.73
2022-09-06T22:43:10.297Z,12.75
2022-09-06T22:45:36.790Z,8.82
2022-09-06T22:48:03.078Z,11.57
2022-09-06T22:50:30.046Z,10.93
2022-09-06T22:52:56.390Z,7.65
2022-09-06T22:55:22.806Z,16.90
2022-09-06T22:57:49.066Z,6.15
2022-09-06T23:00:15.762Z,6.90
2022-09-06T23:02:42.011Z,4.50
2022-09-06T23:05:08.510Z,3.22
2022-09-06T23:07:34.771Z,5.35
2022-09-06T23:10:01.026Z,3.92
2022-09-06T23:12:27.783Z,9.18
2022-09-06T23:14:54.065Z,4.53
2022-09-06T23:17:20.575Z,5.38
2022-09-06T23:19:46.913Z,2.15
2022-09-06T23:22:13.187Z,3.20
2022-09-06T23:24:39.823Z,2.75
2022-09-06T23:27:06.125Z,2.60
2022-09-06T23:29:32.431Z,3.20
2022-09-06T23:31:58.697Z,2.60
2022-09-06T23:34:25.012Z,6.85
2022-09-06T23:36:52.680Z,8.68
2022-09-06T23:39:18.975Z,7.07
2022-09-06T23:41:45.248Z,4.88
2022-09-06T23:44:11.500Z,6.00
2022-09-06T23:46:37.893Z,2.85
2022-09-06T23:49:04.247Z,5.18
2022-09-06T23:51:30.491Z,4.45
2022-09-06T23:53:57.747Z,4.50
2022-09-06T23:56:24.051Z,5.90
2022-09-06T23:58:50.303Z,4.53
